Time;durP1;ratioP1;P1;durP2;ratioP2;P2;SDS_P1;SDS_P2;PMS_P1;PMS_P2;Temp;Humidity;BMP_temperature;BMP_pressure;BME280_temperature;BME280_humidity;BME280_pressure;Samples;Min_cycle;Max_cycle;Signal;HPM_P1;HPM_P2
2022/06/19 00:01:32;;;;;;;6.20;5.80;;;;;;;17.54;83.04;95332.75;5080138;28;20442;-80
2022/06/19 00:03:59;;;;;;;5.70;5.20;;;;;;;17.50;82.50;95327.94;5116131;28;20443;-79
2022/06/19 00:06:26;;;;;;;6.40;5.70;;;;;;;17.47;82.42;95322.94;5116054;28;21000;-80
2022/06/19 00:08:53;;;;;;;5.80;5.30;;;;;;;17.43;82.74;95325.09;5116112;28;20815;-79
2022/06/19 00:11:23;;;;;;;5.47;5.07;;;;;;;17.48;82.78;95328.09;5116102;28;20487;-80
2022/06/19 00:13:51;;;;;;;7.40;5.90;;;;;;;17.48;82.69;95328.09;5115908;28;20439;-80
2022/06/19 00:16:18;;;;;;;6.53;5.93;;;;;;;17.46;82.59;95326.59;5116456;28;20440;-79
2022/06/19 00:18:45;;;;;;;7.43;6.00;;;;;;;17.46;82.57;95326.59;5115564;28;20435;-79
2022/06/19 00:21:15;;;;;;;6.43;5.83;;;;;;;17.41;83.04;95326.25;5116000;28;20451;-79
2022/06/19 00:23:42;;;;;;;6.23;5.57;;;;;;;17.33;83.07;95314.59;5115551;28;20959;-79
2022/06/19 00:26:09;;;;;;;6.87;6.20;;;;;;;17.23;83.68;95321.88;5115527;28;20439;-79
2022/06/19 00:28:39;;;;;;;5.50;5.10;;;;;;;17.21;84.08;95323.03;5115698;28;20448;-79
2022/06/19 00:31:06;;;;;;;6.07;4.87;;;;;;;17.24;84.09;95314.75;5096605;28;20438;-79
2022/06/19 00:33:33;;;;;;;6.00;5.50;;;;;;;17.22;84.04;95325.50;5115503;28;20464;-79
2022/06/19 00:36:01;;;;;;;5.80;5.30;;;;;;;17.19;84.29;95315.22;5115534;28;20442;-79
2022/06/19 00:38:27;;;;;;;5.83;5.23;;;;;;;17.15;84.17;95315.72;5115342;28;20438;-79
2022/06/19 00:40:57;;;;;;;6.40;4.87;;;;;;;17.16;84.14;95325.31;5095876;28;20482;-79
2022/06/19 00:43:25;;;;;;;6.10;5.50;;;;;;;17.14;84.26;95322.84;5079611;28;20455;-79
2022/06/19 00:45:54;;;;;;;6.00;5.50;;;;;;;17.09;84.10;95317.19;5115070;28;20440;-79
2022/06/19 00:48:25;;;;;;;6.10;5.50;;;;;;;17.05;83.74;95321.13;5115158;28;20546;-79
2022/06/19 00:50:54;;;;;;;4.70;4.40;;;;;;;17.02;84.00;95319.63;5114778;28;20420;-79
2022/06/19 00:53:25;;;;;;;7.20;5.70;;;;;;;17.00;84.19;95323.41;5114846;28;20488;-79
2022/06/19 00:55:52;;;;;;;5.80;5.30;;;;;;;16.96;83.56;95325.56;5114964;28;20949;-78
2022/06/19 00:58:22;;;;;;;7.97;5.47;;;;;;;16.90;84.13;95315.59;5114994;28;20996;-79
2022/06/19 01:00:54;;;;;;;6.60;6.00;;;;;;;16.90;84.35;95325.38;5114985;28;20462;-78
2022/06/19 01:03:26;;;;;;;6.40;5.80;;;;;;;16.81;84.32;95331.63;5114778;28;20928;-79
2022/06/19 01:05:54;;;;;;;5.67;5.10;;;;;;;16.84;84.25;95321.53;5114758;28;20448;-79
2022/06/19 01:08:21;;;;;;;5.57;5.07;;;;;;;16.80;84.51;95324.66;5114759;28;20811;-79
2022/06/19 01:10:50;;;;;;;6.50;5.40;;;;;;;16.67;84.98;95319.75;5114501;28;20443;-78
2022/06/19 01:13:21;;;;;;;9.70;5.00;;;;;;;16.66;84.66;95323.41;5114976;28;20486;-78
2022/06/19 01:15:49;;;;;;;5.93;5.33;;;;;;;16.68;84.63;95319.59;5114701;28;20957;-79
2022/06/19 01:18:18;;;;;;;5.60;5.10;;;;;;;16.68;85.09;95316.97;5114502;28;20443;-79
2022/06/19 01:20:45;;;;;;;6.07;5.57;;;;;;;16.73;85.12;95329.72;5114412;28;20538;-79
2022/06/19 01:23:22;;;;;;;5.50;5.10;;;;;;;16.71;85.07;95319.28;5114207;28;21193;-79
2022/06/19 01:25:52;;;;;;;5.23;4.83;;;;;;;16.69;84.36;95331.88;5114544;28;20447;-78
2022/06/19 01:31:09;;;;;;;5.83;5.17;;;;;;;16.70;84.97;95325.59;5114529;28;20409;-78
2022/06/19 01:33:41;;;;;;;6.50;5.90;;;;;;;16.74;84.97;95320.78;5114165;28;20996;-79
2022/06/19 01:36:10;;;;;;;5.40;4.90;;;;;;;16.78;84.86;95313.38;5114314;28;20452;-79
2022/06/19 01:38:37;;;;;;;6.67;5.00;;;;;;;16.76;84.40;95313.50;5114268;28;20952;-80
2022/06/19 01:41:11;;;;;;;5.87;5.37;;;;;;;16.78;84.64;95306.28;5114028;28;20482;-79
2022/06/19 01:43:38;;;;;;;7.63;5.50;;;;;;;16.76;84.07;95313.50;5114159;28;20438;-79
2022/06/19 01:46:06;;;;;;;5.40;4.90;;;;;;;16.78;84.10;95316.03;5113980;28;20453;-80
2022/06/19 01:48:34;;;;;;;6.13;5.60;;;;;;;16.79;84.32;95312.41;5114001;28;20925;-79
2022/06/19 01:51:04;;;;;;;7.27;6.57;;;;;;;16.73;84.45;95314.66;5114257;28;20444;-79
2022/06/19 01:53:37;;;;;;;7.43;5.90;;;;;;;16.70;84.25;95314.16;5113913;28;20521;-79
2022/06/19 01:56:07;;;;;;;5.87;5.37;;;;;;;16.71;84.42;95316.66;5114001;28;20500;-79
2022/06/19 01:58:36;;;;;;;5.87;5.37;;;;;;;16.68;84.60;95318.78;5114369;28;20458;-79
2022/06/19 02:01:06;;;;;;;5.83;5.33;;;;;;;16.64;83.92;95322.69;5113639;28;20447;-79
2022/06/19 02:03:38;;;;;;;6.20;5.63;;;;;;;16.61;84.62;95321.19;5113167;28;20444;-79
2022/06/19 02:06:06;;;;;;;7.73;5.17;;;;;;;16.59;84.61;95325.00;5113944;28;20799;-79
2022/06/19 02:08:35;;;;;;;6.40;5.90;;;;;;;16.56;84.49;95323.50;5113779;28;20467;-79
2022/06/19 02:11:04;;;;;;;7.43;5.10;;;;;;;16.54;84.61;95325.47;5113776;28;20898;-79
2022/06/19 02:13:34;;;;;;;6.00;5.50;;;;;;;16.53;84.33;95333.56;5113967;28;20489;-79
2022/06/19 02:16:04;;;;;;;6.13;5.63;;;;;;;16.54;84.50;95330.75;5113683;28;20444;-79
2022/06/19 02:18:42;;;;;;;5.73;4.97;;;;;;;16.55;84.92;95337.72;5113941;28;20796;-80
2022/06/19 02:21:14;;;;;;;6.90;5.97;;;;;;;16.47;84.82;95329.69;5113327;28;20455;-79
2022/06/19 02:23:42;;;;;;;5.50;5.00;;;;;;;16.46;84.35;95329.84;5113773;28;20454;-79
2022/06/19 02:26:11;;;;;;;6.13;5.63;;;;;;;16.45;84.77;95336.97;5113572;28;20454;-79
2022/06/19 02:28:40;;;;;;;7.43;5.80;;;;;;;16.44;84.82;95335.31;5113937;28;20452;-79
2022/06/19 02:31:08;;;;;;;5.83;5.23;;;;;;;16.45;84.45;95339.63;5113426;28;20696;-79
2022/06/19 02:33:38;;;;;;;7.90;5.07;;;;;;;16.43;84.79;95338.94;5113189;28;20490;-79
2022/06/19 02:36:37;;;;;;;6.50;5.90;;;;;;;16.46;84.77;95338.63;5113114;28;20436;-80
2022/06/19 02:39:17;;;;;;;6.83;5.20;;;;;;;16.51;84.28;95339.03;5113365;28;20815;-79
2022/06/19 02:41:51;;;;;;;5.47;4.97;;;;;;;16.50;83.96;95337.38;5113048;28;20474;-79
2022/06/19 02:44:20;;;;;;;5.37;4.97;;;;;;;16.50;84.19;95340.00;5113220;28;20834;-79
2022/06/19 02:46:47;;;;;;;5.30;4.80;;;;;;;16.49;84.33;95340.16;5113323;28;20443;-80
2022/06/19 02:49:14;;;;;;;6.13;5.50;;;;;;;16.43;84.38;95331.84;5113628;28;20439;-79
2022/06/19 02:51:41;;;;;;;6.47;5.70;;;;;;;16.45;84.45;95338.78;5113044;28;20548;-79
2022/06/19 02:54:08;;;;;;;7.83;5.40;;;;;;;16.36;83.84;95338.75;5113576;28;20497;-79
2022/06/19 02:56:35;;;;;;;6.67;4.90;;;;;;;16.31;83.96;95346.31;5112777;28;20453;-79
2022/06/19 02:59:01;;;;;;;5.33;4.83;;;;;;;16.35;84.59;95346.84;5112928;28;20439;-79
2022/06/19 03:01:30;;;;;;;7.83;5.43;;;;;;;16.35;84.71;95347.69;5112885;28;20956;-79
2022/06/19 03:03:57;;;;;;;5.63;5.00;;;;;;;16.37;84.44;95345.69;5113107;28;20967;-79
2022/06/19 03:06:25;;;;;;;6.47;5.73;;;;;;;16.38;84.06;95347.38;5113033;28;20435;-79
2022/06/19 03:08:52;;;;;;;4.97;4.57;;;;;;;16.40;84.35;95355.16;5094254;28;20802;-79
2022/06/19 03:11:19;;;;;;;6.17;5.63;;;;;;;16.38;84.23;95352.66;5077306;28;20515;-79
2022/06/19 03:13:46;;;;;;;5.40;4.97;;;;;;;16.37;84.23;95355.47;5113791;28;21012;-79
2022/06/19 03:16:13;;;;;;;5.27;4.77;;;;;;;16.30;84.63;95365.84;5117403;28;20442;-79
2022/06/19 03:18:42;;;;;;;5.83;5.33;;;;;;;16.28;85.04;95367.81;5117229;28;20446;-79
2022/06/19 03:21:09;;;;;;;5.50;5.00;;;;;;;16.33;85.71;95367.34;5116847;28;20453;-79
2022/06/19 03:23:35;;;;;;;6.03;5.50;;;;;;;16.41;85.65;95368.25;5081118;28;20450;-79
2022/06/19 03:26:02;;;;;;;6.00;5.50;;;;;;;16.53;85.58;95368.84;5116923;28;20450;-79
2022/06/19 03:28:30;;;;;;;4.97;4.57;;;;;;;16.63;85.13;95368.75;5116826;28;20439;-79
2022/06/19 03:30:57;;;;;;;5.60;5.20;;;;;;;16.83;84.16;95374.72;5116940;28;20446;-79
2022/06/19 03:33:23;;;;;;;5.10;4.70;;;;;;;16.98;83.63;95375.78;5116797;28;20479;-79
2022/06/19 03:35:52;;;;;;;5.30;4.90;;;;;;;17.19;82.06;95375.41;5117051;28;20442;-79
2022/06/19 03:38:19;;;;;;;6.53;4.40;;;;;;;17.42;81.01;95378.31;5117005;28;20928;-79
2022/06/19 03:40:46;;;;;;;4.70;4.40;;;;;;;17.63;79.55;95381.34;5116733;28;20475;-79
2022/06/19 03:43:13;;;;;;;7.13;4.80;;;;;;;17.94;78.80;95376.34;5117025;28;20443;-79
2022/06/19 03:45:40;;;;;;;7.60;4.57;;;;;;;18.34;77.12;95375.56;5116518;28;20442;-79
2022/06/19 03:48:09;;;;;;;5.23;4.80;;;;;;;18.71;75.49;95368.91;5117026;28;20431;-79
2022/06/19 03:50:35;;;;;;;5.00;4.60;;;;;;;19.09;73.80;95365.53;5116745;28;20451;-79
2022/06/19 03:53:04;;;;;;;6.00;4.60;;;;;;;19.43;72.47;95375.06;5116453;28;20482;-79
2022/06/19 03:55:31;;;;;;;4.00;3.80;;;;;;;19.73;70.92;95381.47;5116301;28;20447;-79
2022/06/19 03:57:57;;;;;;;9.77;4.93;;;;;;;20.17;69.36;95376.34;5080298;28;20428;-80
2022/06/19 04:00:24;;;;;;;4.10;3.80;;;;;;;20.56;67.42;95381.59;5116110;28;20444;-79
2022/06/19 04:02:51;;;;;;;4.30;4.00;;;;;;;20.81;65.96;95368.84;5116050;28;20447;-79
2022/06/19 04:05:19;;;;;;;5.20;4.70;;;;;;;20.99;65.54;95373.88;5116232;28;20443;-79
2022/06/19 04:07:48;;;;;;;5.90;4.87;;;;;;;21.26;64.07;95377.78;5116088;28;20957;-80
2022/06/19 04:10:18;;;;;;;4.90;4.40;;;;;;;21.51;63.54;95375.66;5116483;28;20443;-80
2022/06/19 04:12:45;;;;;;;4.60;4.20;;;;;;;21.71;62.85;95382.09;5116063;28;20489;-80
2022/06/19 04:15:13;;;;;;;5.03;4.53;;;;;;;21.78;62.94;95377.66;5116178;28;20966;-80
2022/06/19 04:17:40;;;;;;;5.30;4.90;;;;;;;21.70;63.67;95376.94;5116271;28;20448;-80
2022/06/19 04:20:09;;;;;;;6.20;5.33;;;;;;;21.96;63.46;95369.22;5116130;28;20439;-80
2022/06/19 04:22:36;;;;;;;6.67;6.00;;;;;;;22.20;63.04;95376.91;5115823;28;20447;-80
2022/06/19 04:25:04;;;;;;;10.50;6.70;;;;;;;22.47;63.04;95372.66;5115469;28;20442;-80
2022/06/19 04:27:34;;;;;;;10.90;8.00;;;;;;;22.70;62.67;95375.16;5115585;28;20455;-80
2022/06/19 04:30:02;;;;;;;7.57;6.87;;;;;;;22.83;62.41;95375.28;5115781;28;20436;-80
2022/06/19 04:32:30;;;;;;;10.73;6.57;;;;;;;22.93;62.55;95376.81;5116044;28;20439;-80
2022/06/19 04:34:57;;;;;;;9.20;8.17;;;;;;;22.82;61.71;95378.97;5116001;28;20534;-80
2022/06/19 04:37:24;;;;;;;8.20;7.50;;;;;;;22.93;62.61;95372.28;5115670;27;20450;-80
2022/06/19 04:39:51;;;;;;;7.83;7.10;;;;;;;23.24;61.60;95373.72;5115603;28;20483;-80
2022/06/19 04:42:17;;;;;;;13.93;6.63;;;;;;;23.52;60.34;95374.50;5115491;28;20439;-80
2022/06/19 04:44:46;;;;;;;7.10;6.40;;;;;;;23.78;59.34;95372.00;5115622;28;21141;-80
2022/06/19 04:47:12;;;;;;;7.37;6.63;;;;;;;23.92;58.36;95377.41;5115637;28;20454;-80
2022/06/19 04:49:39;;;;;;;7.77;7.17;;;;;;;23.73;58.94;95379.81;5115422;28;20435;-80
2022/06/19 04:52:07;;;;;;;7.30;6.70;;;;;;;23.93;59.42;95374.50;5115604;28;20452;-80
2022/06/19 04:54:34;;;;;;;7.87;7.17;;;;;;;24.19;57.70;95372.94;5096373;28;20494;-80
2022/06/19 04:57:00;;;;;;;8.10;7.40;;;;;;;24.50;57.02;95375.94;5079246;28;20432;-80
2022/06/19 04:59:27;;;;;;;9.30;7.53;;;;;;;24.79;56.02;95384.63;5114997;28;20816;-80
2022/06/19 05:01:56;;;;;;;8.77;7.50;;;;;;;25.15;55.27;95381.56;5114930;28;20950;-80
2022/06/19 05:04:22;;;;;;;10.67;8.00;;;;;;;25.42;54.78;95379.66;5114933;28;20450;-80
2022/06/19 05:06:50;;;;;;;7.23;6.67;;;;;;;25.59;53.52;95389.75;5115099;28;21288;-80
2022/06/19 05:09:18;;;;;;;8.00;6.93;;;;;;;25.60;53.50;95388.72;5114833;28;20817;-80
2022/06/19 05:11:45;;;;;;;6.83;6.23;;;;;;;25.67;53.44;95388.72;5115251;28;20945;-80
2022/06/19 05:14:13;;;;;;;7.23;6.63;;;;;;;25.74;52.65;95389.56;5115134;28;20478;-80
2022/06/19 05:16:41;;;;;;;7.07;6.53;;;;;;;25.76;52.87;95384.78;5114916;28;20443;-81
2022/06/19 05:19:11;;;;;;;8.30;7.50;;;;;;;25.79;53.01;95386.22;5114861;28;20450;-80
2022/06/19 05:21:38;;;;;;;11.03;6.80;;;;;;;25.95;52.21;95385.72;5113860;28;20435;-80
2022/06/19 05:24:05;;;;;;;7.07;6.47;;;;;;;25.37;53.42;95391.03;5115040;28;20440;-80
2022/06/19 05:26:34;;;;;;;17.70;8.00;;;;;;;25.35;53.42;95387.72;5114652;28;20958;-80
2022/06/19 05:29:02;;;;;;;8.13;7.33;;;;;;;25.63;53.74;95387.47;5114357;28;20531;-80
2022/06/19 05:31:29;;;;;;;8.20;6.13;;;;;;;25.85;53.25;95386.19;5078775;28;20436;-80
2022/06/19 05:33:56;;;;;;;9.73;7.20;;;;;;;26.21;52.04;95391.00;5114753;28;20483;-80
2022/06/19 05:36:28;;;;;;;8.10;7.30;;;;;;;26.42;51.13;95392.56;5114690;28;20439;-80
2022/06/19 05:38:55;;;;;;;9.57;6.70;;;;;;;26.39;51.24;95394.88;5114722;28;20443;-80
2022/06/19 05:41:23;;;;;;;13.47;6.73;;;;;;;26.45;51.08;95394.84;5114544;28;20476;-80
2022/06/19 05:43:51;;;;;;;7.67;6.47;;;;;;;26.48;50.89;95389.00;5095659;28;20447;-80
2022/06/19 05:46:19;;;;;;;6.10;5.60;;;;;;;26.72;50.56;95386.59;5095646;28;20428;-81
2022/06/19 05:48:46;;;;;;;7.17;6.53;;;;;;;27.15;49.25;95386.69;5114307;28;20443;-80
2022/06/19 05:51:16;;;;;;;7.93;6.10;;;;;;;27.44;48.96;95382.47;5114482;28;20450;-80
2022/06/19 05:53:47;;;;;;;11.23;6.30;;;;;;;27.36;48.32;95380.06;5113813;28;20491;-80
2022/06/19 05:56:14;;;;;;;5.93;5.33;;;;;;;27.39;49.14;95376.94;5114502;28;20809;-80
2022/06/19 05:58:41;;;;;;;7.30;6.70;;;;;;;27.54;48.55;95374.72;5113997;28;20455;-80
2022/06/19 06:01:09;;;;;;;6.13;5.53;;;;;;;27.70;48.03;95384.91;5114262;28;20447;-80
2022/06/19 06:03:36;;;;;;;5.83;5.43;;;;;;;27.82;47.45;95387.72;5114257;28;20451;-81
2022/06/19 06:06:05;;;;;;;5.87;5.17;;;;;;;28.07;46.57;95393.03;5114132;28;20492;-80
2022/06/19 06:08:35;;;;;;;7.33;5.10;;;;;;;28.34;45.81;95385.44;5113533;28;20526;-80
2022/06/19 06:11:04;;;;;;;4.77;4.47;;;;;;;28.67;44.89;95376.88;5113871;28;20961;-81
2022/06/19 06:13:31;;;;;;;4.50;4.10;;;;;;;28.90;43.49;95373.41;5114452;28;20492;-80
2022/06/19 06:15:58;;;;;;;5.13;4.63;;;;;;;29.03;43.63;95377.78;5094971;28;20455;-80
2022/06/19 06:18:26;;;;;;;5.50;4.50;;;;;;;28.95;41.93;95377.09;5113993;28;20439;-81
2022/06/19 06:20:56;;;;;;;5.23;4.83;;;;;;;28.75;43.05;95375.72;5113462;28;20929;-81
2022/06/19 06:23:23;;;;;;;3.90;3.60;;;;;;;28.65;43.33;95368.19;5113522;28;20941;-81
2022/06/19 06:25:57;;;;;;;4.83;4.47;;;;;;;28.75;44.02;95371.13;5113666;28;20435;-81
2022/06/19 06:28:26;;;;;;;4.90;4.50;;;;;;;29.05;43.67;95381.91;5114033;28;20435;-81
2022/06/19 06:30:52;;;;;;;4.63;4.33;;;;;;;29.10;42.50;95373.91;5113492;28;20451;-80
2022/06/19 06:33:19;;;;;;;4.13;3.83;;;;;;;29.30;42.93;95381.69;5113218;28;20973;-81
2022/06/19 06:35:47;;;;;;;5.40;4.37;;;;;;;29.23;41.28;95372.88;5113339;28;20791;-81
2022/06/19 06:38:14;;;;;;;4.07;3.63;;;;;;;29.16;42.11;95377.56;5078163;28;20447;-81
2022/06/19 06:40:41;;;;;;;4.20;3.90;;;;;;;29.19;41.48;95375.22;5113120;28;20582;-81
2022/06/19 06:43:10;;;;;;;4.80;4.00;;;;;;;29.32;41.29;95382.28;5077864;28;20444;-81
2022/06/19 06:45:38;;;;;;;4.47;3.67;;;;;;;29.55;40.56;95376.09;5094340;28;20841;-80
2022/06/19 06:48:06;;;;;;;4.47;4.17;;;;;;;29.80;39.38;95370.41;5112932;28;20436;-81
2022/06/19 06:50:33;;;;;;;5.80;3.90;;;;;;;30.00;38.10;95370.81;5113336;28;20455;-81
2022/06/19 06:53:00;;;;;;;4.00;3.43;;;;;;;29.78;38.25;95356.28;5113541;28;20449;-81
2022/06/19 06:55:27;;;;;;;5.13;3.77;;;;;;;29.64;36.26;95363.00;5113124;28;20451;-81
2022/06/19 06:57:54;;;;;;;4.27;3.97;;;;;;;29.58;37.39;95359.38;5113616;28;20434;-81
2022/06/19 07:00:23;;;;;;;4.40;4.10;;;;;;;29.62;38.51;95357.03;5112988;28;20921;-81
2022/06/19 07:02:52;;;;;;;4.40;4.00;;;;;;;29.32;38.25;95355.25;5113525;28;20459;-81
2022/06/19 07:05:19;;;;;;;5.27;3.67;;;;;;;29.30;37.04;95355.47;5094579;28;20454;-81
2022/06/19 07:07:46;;;;;;;4.13;3.77;;;;;;;29.27;40.17;95355.97;5113243;28;20938;-81
2022/06/19 07:10:13;;;;;;;4.40;4.00;;;;;;;29.34;39.38;95352.31;5113437;28;20447;-81
2022/06/19 07:12:40;;;;;;;4.27;3.87;;;;;;;29.37;39.54;95349.94;5113227;28;20439;-81
2022/06/19 07:15:08;;;;;;;8.50;4.27;;;;;;;29.56;39.65;95346.09;5112924;28;20486;-80
2022/06/19 07:17:35;;;;;;;5.73;3.00;;;;;;;29.36;37.02;95351.00;5113795;28;20448;-81
2022/06/19 07:20:03;;;;;;;3.27;3.07;;;;;;;29.01;36.80;95342.06;5077015;28;20950;-81
2022/06/19 07:22:30;;;;;;;4.70;2.70;;;;;;;28.97;34.40;95337.13;5113516;28;20956;-81
2022/06/19 07:24:57;;;;;;;3.60;3.00;;;;;;;29.07;35.36;95336.56;5113186;28;20470;-81
2022/06/19 07:27:25;;;;;;;3.07;2.87;;;;;;;28.98;36.90;95338.78;5112843;28;20447;-81
2022/06/19 07:29:52;;;;;;;4.43;3.10;;;;;;;28.76;36.66;95328.72;5113166;28;20457;-81
2022/06/19 07:32:19;;;;;;;3.13;2.93;;;;;;;28.05;37.93;95335.75;5112787;28;20443;-81
2022/06/19 07:34:45;;;;;;;3.20;2.90;;;;;;;28.21;38.99;95335.13;5112998;28;20833;-81
2022/06/19 07:37:15;;;;;;;2.90;2.57;;;;;;;28.43;36.19;95326.53;5112863;28;20942;-81
2022/06/19 07:39:42;;;;;;;3.63;3.33;;;;;;;28.44;38.00;95337.13;5076673;28;20457;-81
2022/06/19 07:42:10;;;;;;;6.23;3.83;;;;;;;28.01;38.48;95326.44;5113041;28;20443;-81
2022/06/19 07:44:38;;;;;;;2.93;2.70;;;;;;;27.51;37.37;95331.19;5112846;28;20458;-81
2022/06/19 07:52:37;;;;;;;4.33;2.70;;;;;;;27.12;33.81;95328.66;5112790;28;20422;-82
2022/06/19 07:55:05;;;;;;;2.10;2.00;;;;;;;26.97;34.65;95330.88;5112701;28;20842;-81
2022/06/19 07:57:32;;;;;;;2.77;2.10;;;;;;;26.87;33.69;95322.44;5112653;28;20451;-81
2022/06/19 07:59:59;;;;;;;3.67;2.10;;;;;;;27.44;35.96;95325.84;5112289;28;20451;-81
2022/06/19 08:02:26;;;;;;;2.50;2.30;;;;;;;27.00;37.08;95335.03;5116087;28;20439;-81
2022/06/19 08:04:53;;;;;;;5.57;2.63;;;;;;;27.33;38.63;95329.31;5116219;28;20938;-81
2022/06/19 08:07:20;;;;;;;2.47;2.27;;;;;;;27.45;36.84;95322.13;5116662;28;20435;-81
2022/06/19 08:09:48;;;;;;;5.40;3.30;;;;;;;27.17;35.97;95333.38;5116440;28;20423;-81
2022/06/19 08:12:15;;;;;;;2.73;2.53;;;;;;;27.19;35.67;95330.50;5115682;28;20443;-81
2022/06/19 08:14:42;;;;;;;2.40;2.20;;;;;;;27.35;35.28;95325.34;5116103;28;20479;-81
2022/06/19 08:17:09;;;;;;;2.20;2.10;;;;;;;27.64;37.35;95321.09;5115825;28;20447;-81
2022/06/19 08:19:36;;;;;;;4.63;2.90;;;;;;;27.82;35.20;95314.06;5115964;28;20439;-82
2022/06/19 08:22:03;;;;;;;6.00;2.40;;;;;;;27.81;36.54;95320.50;5080014;28;20435;-80
2022/06/19 08:24:30;;;;;;;3.30;2.27;;;;;;;27.71;36.35;95321.03;5080238;28;20440;-81
2022/06/19 08:26:59;;;;;;;2.43;2.20;;;;;;;27.27;38.40;95314.03;5116038;28;20462;-80
2022/06/19 08:29:26;;;;;;;3.07;2.87;;;;;;;27.08;35.08;95313.19;5115420;28;20443;-81
2022/06/19 08:31:53;;;;;;;2.63;2.53;;;;;;;27.24;35.93;95309.09;5115588;28;20526;-80
2022/06/19 08:34:20;;;;;;;2.80;2.60;;;;;;;27.22;37.44;95306.63;5115452;28;20475;-80
2022/06/19 08:36:47;;;;;;;2.70;2.50;;;;;;;27.38;37.85;95308.72;5116026;28;20478;-80
2022/06/19 08:39:17;;;;;;;3.13;2.37;;;;;;;27.52;37.50;95312.09;5115312;28;20443;-81
2022/06/19 08:42:06;;;;;;;3.00;2.70;;;;;;;27.47;37.19;95301.19;5115279;28;20486;-80
2022/06/19 08:45:05;;;;;;;2.90;2.70;;;;;;;27.67;36.42;95301.78;5115364;28;20444;-80
2022/06/19 08:47:45;;;;;;;3.10;2.90;;;;;;;27.80;37.92;95297.28;5052664;28;21060;-81
2022/06/19 08:50:22;;;;;;;3.90;2.57;;;;;;;27.69;34.84;95305.06;5052561;28;20557;-80
2022/06/19 08:53:01;;;;;;;2.57;2.37;;;;;;;27.60;34.64;95298.31;5052481;28;20442;-81
2022/06/19 08:55:40;;;;;;;1.90;1.80;;;;;;;27.18;35.99;95297.34;5052209;28;20478;-81
2022/06/19 08:58:16;;;;;;;2.63;2.43;;;;;;;26.34;35.40;95287.06;5052194;28;20442;-81
2022/06/19 09:00:51;;;;;;;3.20;2.60;;;;;;;26.12;35.02;95300.00;5018986;28;20955;-81
2022/06/19 09:03:26;;;;;;;5.47;2.20;;;;;;;26.53;35.80;95294.16;5052178;28;20886;-81
2022/06/19 09:06:02;;;;;;;5.27;4.20;;;;;;;26.65;35.09;95294.28;5052423;28;20577;-80
2022/06/19 09:08:52;;;;;;;2.43;2.33;;;;;;;26.75;35.58;95290.03;5052439;28;20492;-81
2022/06/19 09:11:33;;;;;;;3.23;2.07;;;;;;;26.51;35.17;95282.78;5051972;28;20441;-81
2022/06/19 09:14:16;;;;;;;2.50;2.10;;;;;;;26.37;36.20;95287.44;5052056;28;20446;-81
2022/06/19 09:16:52;;;;;;;4.67;2.27;;;;;;;26.57;36.47;95281.91;5052120;28;20449;-80
2022/06/19 09:19:30;;;;;;;2.10;2.00;;;;;;;26.46;35.22;95286.13;5052137;28;20572;-82
2022/06/19 09:22:11;;;;;;;2.67;2.27;;;;;;;26.12;36.04;95279.31;5020493;28;21016;-82
2022/06/19 09:25:01;;;;;;;1.93;1.83;;;;;;;26.21;35.54;95277.16;5096975;28;20447;-82
2022/06/19 09:27:34;;;;;;;2.33;2.23;;;;;;;26.27;36.63;95270.09;5114520;28;20458;-81
2022/06/19 09:30:05;;;;;;;1.97;1.87;;;;;;;26.47;37.21;95277.00;5078785;28;20918;-81
2022/06/19 09:32:36;;;;;;;2.20;2.00;;;;;;;26.46;33.80;95271.84;5114397;28;20465;-82
2022/06/19 09:35:11;;;;;;;3.30;2.10;;;;;;;26.72;35.78;95268.94;5114207;28;20824;-81
2022/06/19 09:37:45;;;;;;;1.70;1.60;;;;;;;26.75;34.71;95271.19;5114650;28;20792;-82
2022/06/19 09:40:17;;;;;;;2.17;2.07;;;;;;;26.84;35.69;95263.63;5114242;28;20479;-81
2022/06/19 09:42:49;;;;;;;2.10;1.90;;;;;;;26.93;35.27;95258.81;5114086;28;20447;-81
2022/06/19 09:45:23;;;;;;;4.23;2.10;;;;;;;26.95;34.34;95257.53;5114285;28;20934;-81
2022/06/19 09:47:57;;;;;;;2.30;2.10;;;;;;;26.79;35.75;95258.91;5114061;28;20790;-81
2022/06/19 09:50:31;;;;;;;2.20;2.07;;;;;;;26.03;33.28;95253.72;5114001;28;20440;-81
2022/06/19 09:53:04;;;;;;;2.57;1.97;;;;;;;26.38;33.87;95254.09;5113999;28;20794;-80
2022/06/19 09:55:36;;;;;;;4.60;2.10;;;;;;;26.71;33.51;95255.69;5113842;28;20976;-81
2022/06/19 09:58:12;;;;;;;2.20;2.00;;;;;;;26.71;33.21;95253.00;5114241;28;20509;-81
2022/06/19 10:00:41;;;;;;;10.43;2.60;;;;;;;26.77;32.94;95249.41;5079869;28;20447;-81
2022/06/19 10:03:18;;;;;;;3.43;1.73;;;;;;;26.40;32.61;95256.59;5113968;28;20435;-81
2022/06/19 10:05:51;;;;;;;5.30;2.00;;;;;;;26.33;33.16;95248.53;5113982;28;20486;-81
2022/06/19 10:08:24;;;;;;;1.90;1.80;;;;;;;25.91;33.56;95245.50;5113705;28;20815;-81
2022/06/19 10:10:54;;;;;;;3.30;1.90;;;;;;;25.93;34.52;95246.09;5078066;28;20968;-82
2022/06/19 10:13:29;;;;;;;1.73;1.63;;;;;;;25.75;34.82;95243.34;5113649;28;20448;-81
2022/06/19 10:16:01;;;;;;;2.30;2.10;;;;;;;25.41;35.10;95247.16;5113602;28;20478;-81
2022/06/19 10:18:32;;;;;;;3.83;2.07;;;;;;;25.32;36.18;95245.75;5113559;28;20478;-81
2022/06/19 10:21:07;;;;;;;5.97;2.00;;;;;;;25.36;35.88;95249.66;5113476;28;20439;-81
2022/06/19 10:23:46;;;;;;;1.70;1.60;;;;;;;25.20;35.61;95245.59;5113069;28;20519;-81
2022/06/19 10:26:27;;;;;;;2.13;2.03;;;;;;;25.46;35.16;95235.81;5113436;28;20427;-81
2022/06/19 10:29:19;;;;;;;4.63;2.10;;;;;;;25.61;36.40;95231.78;5113432;28;20816;-81
2022/06/19 10:32:06;;;;;;;1.90;1.80;;;;;;;25.67;35.97;95237.34;5113436;28;20444;-81
2022/06/19 10:34:48;;;;;;;5.47;2.23;;;;;;;25.62;35.60;95224.53;5113237;28;20505;-81
2022/06/19 10:37:27;;;;;;;2.33;2.13;;;;;;;25.84;37.70;95225.06;5080631;28;20443;-81
2022/06/19 10:40:08;;;;;;;2.63;2.43;;;;;;;26.05;37.35;95224.72;5113205;28;20477;-81
2022/06/19 10:42:51;;;;;;;3.17;1.90;;;;;;;26.16;36.03;95220.50;5113542;28;20799;-80
2022/06/19 10:45:31;;;;;;;2.23;2.03;;;;;;;26.01;37.19;95228.88;5113161;28;20450;-81
2022/06/19 10:48:13;;;;;;;1.87;1.77;;;;;;;25.77;37.17;95225.13;5112759;28;20434;-81
2022/06/19 10:50:47;;;;;;;4.37;1.80;;;;;;;26.01;37.82;95222.66;5112967;28;20508;-81
2022/06/19 10:53:35;;;;;;;3.43;2.13;;;;;;;26.18;36.43;95218.41;5112849;28;20440;-81
2022/06/19 10:56:12;;;;;;;2.00;1.90;;;;;;;26.06;36.37;95221.00;5112874;28;20471;-80
2022/06/19 10:58:40;;;;;;;4.73;2.50;;;;;;;26.11;38.20;95212.28;5113161;28;20439;-81
2022/06/19 11:04:06;;;;;;;2.20;2.00;;;;;;;26.31;35.89;95218.34;5113105;28;20439;-81
2022/06/19 11:04:07;;;;;;;2.27;2.07;;;;;;;26.45;36.50;95214.50;5112880;28;20461;-81
2022/06/19 11:06:40;;;;;;;3.40;2.23;;;;;;;26.54;36.87;95207.78;5112554;28;20953;-81
2022/06/19 11:09:12;;;;;;;2.10;1.80;;;;;;;26.59;37.14;95217.06;5113125;28;20466;-81
2022/06/19 11:11:41;;;;;;;2.30;2.10;;;;;;;26.71;36.80;95210.75;5113268;28;20470;-81
2022/06/19 11:14:10;;;;;;;2.00;1.80;;;;;;;26.89;35.51;95204.56;5112672;28;20443;-81
2022/06/19 11:16:53;;;;;;;2.47;2.30;;;;;;;27.00;34.11;95206.53;5112710;28;20479;-81
2022/06/19 11:19:38;;;;;;;11.60;2.73;;;;;;;26.92;35.30;95197.91;5112792;28;20466;-81
2022/06/19 11:22:18;;;;;;;10.40;2.80;;;;;;;27.05;35.00;95201.28;5112847;28;20435;-81
2022/06/19 11:24:45;;;;;;;2.47;1.70;;;;;;;26.74;34.65;95196.00;5112656;28;20435;-81
2022/06/19 11:27:18;;;;;;;3.73;1.93;;;;;;;26.79;36.02;95193.47;5077196;28;20445;-81
2022/06/19 11:29:48;;;;;;;2.77;2.10;;;;;;;26.69;34.84;95193.16;5112891;28;21019;-81
2022/06/19 11:32:18;;;;;;;7.10;2.80;;;;;;;26.58;35.55;95192.00;5112798;28;20435;-80
2022/06/19 11:34:59;;;;;;;1.90;1.80;;;;;;;26.08;37.00;95180.44;5113373;28;20443;-81
2022/06/19 11:37:30;;;;;;;6.03;4.00;;;;;;;26.25;38.33;95186.91;5080916;28;20451;-81
2022/06/19 11:40:15;;;;;;;4.30;2.47;;;;;;;26.45;36.77;95182.22;5116466;28;20496;-81
2022/06/19 11:42:49;;;;;;;2.20;2.00;;;;;;;26.69;34.08;95168.94;5116759;28;21013;-81
2022/06/19 11:45:28;;;;;;;2.17;1.97;;;;;;;26.66;37.25;95183.66;5116915;28;20907;-81
2022/06/19 11:48:06;;;;;;;1.83;1.73;;;;;;;26.29;35.28;95185.41;5116789;28;20871;-81
2022/06/19 11:50:47;;;;;;;2.83;2.20;;;;;;;26.28;35.92;95180.25;5116225;28;20435;-81
2022/06/19 11:53:18;;;;;;;6.20;2.13;;;;;;;26.57;35.40;95168.00;5116352;28;20482;-81
2022/06/19 11:55:48;;;;;;;2.07;1.87;;;;;;;26.79;37.63;95172.75;5116409;28;20483;-81
2022/06/19 11:58:26;;;;;;;2.53;2.37;;;;;;;26.74;35.88;95161.00;5116205;28;20971;-81